Terminal Aerodrome Forecast
Issued by NWS

Home | Current Version | Previous Version | Text Only | Print | Product List | Glossary On
Versions: 1 2 3 4 5 6 7 8 9 10 11 12 13 14 15
072
FTUS43 KGRR 261352 AAA
TAFBTL
TAF AMD
KBTL 261352Z 2614/2712 21011KT P6SM BKN015
     FM261800 20010G20KT 5SM -TSRA BR BKN050CB
     FM262200 19009KT P6SM SCT050
     FM270400 17004KT 4SM BR BKN250
     FM270900 16003KT 2SM BR SCT009=

USA.gov is the U.S. government's official web portal to all federal, state and local government web resources and services.